This is the latest recevied weather packets stored in our database for station/object OK1FET-4. If no packets are shown the sender has not sent any weather packets the latest 1 day(s).
| Time | Temp. | Humidity | Pressure | Rain* | Wind** | Luminosity | Snow |
|---|---|---|---|---|---|---|---|
| 1836274818 | 11.67° C | 89% | 1021.8 hPa | - | 0.89 m/s, 141° | - | - |
| 1836274818 | 11.67° C | 89% | 1021.8 hPa | - | 0.89 m/s, 141° | - | - |
| 1836274818 | 11.67° C | 89% | 1021.8 hPa | - | 0.89 m/s, 141° | - | - |
| 1836274549 | 11.67° C | 89% | 1021.8 hPa | - | 1.34 m/s, 135° | - | - |
| 1836274548 | 11.67° C | 89% | 1021.8 hPa | - | 1.34 m/s, 135° | - | - |
| 1836274337 | 11.67° C | 89% | 1021.7 hPa | - | 1.34 m/s, 156° | - | - |
| 1836274337 | 11.67° C | 89% | 1021.7 hPa | - | 1.34 m/s, 156° | - | - |
| 1836274337 | 11.67° C | 89% | 1021.7 hPa | - | 1.34 m/s, 156° | - | - |
| 1836274279 | 11.67° C | 89% | 1021.9 hPa | - | 1.34 m/s, 138° | - | - |
| 1836274279 | 11.67° C | 89% | 1021.9 hPa | - | 1.34 m/s, 138° | - | - |
| 1836274279 | 11.67° C | 89% | 1021.9 hPa | - | 1.34 m/s, 138° | - | - |
| 1836274010 | 11.67° C | 87% | 1022 hPa | - | 0.89 m/s, 148° | - | - |
| 1836274010 | 11.67° C | 87% | 1022 hPa | - | 0.89 m/s, 148° | - | - |
| 1836274010 | 11.67° C | 87% | 1022 hPa | - | 0.89 m/s, 148° | - | - |
| 1778031135 | 11.67° C | 97% | 1007.1 hPa | - | 2.68 m/s, 261° | - | - |
| 1778031135 | 11.67° C | 97% | 1007.1 hPa | - | 2.68 m/s, 261° | - | - |
| 1778031135 | 11.67° C | 97% | 1007.1 hPa | - | 2.68 m/s, 261° | - | - |
| 1778030835 | 11.67° C | 97% | 1007.1 hPa | - | 3.13 m/s, 258° | - | - |
| 1778030835 | 11.67° C | 97% | 1007.1 hPa | - | 3.13 m/s, 258° | - | - |
| 1778030535 | 11.67° C | 97% | 1007.1 hPa | - | 3.13 m/s, 267° | - | - |
| 1778030535 | 11.67° C | 97% | 1007.1 hPa | - | 3.13 m/s, 267° | - | - |
| 1778030235 | 11.67° C | 97% | 1007.1 hPa | - | 3.13 m/s, 256° | - | - |
| 1778030234 | 11.67° C | 97% | 1007.1 hPa | - | 3.13 m/s, 256° | - | - |
| 1778030234 | 11.67° C | 97% | 1007.1 hPa | - | 3.13 m/s, 256° | - | - |
| 1778029934 | 12.22° C | 97% | 1007 hPa | - | 3.58 m/s, 270° | - | - |
* Rain since midnight (hover to see other rain measurements)
** Current wind speed in m/s (hover to see current wind gust speed)